Aérodrome :
LOGIN :

S'inscrire | Disclaimer

   EN    FR    IT 

 










Légende :    VFR   VFR Marginal   IFR   IFR Intensif   IFR Très Intensif
Visi : 
Plafond : 
>= 8 km
>= 3000ft
5 à 8 km
1000 à 3000 ft
1500m à 5 km
500 à 1000 ft
800 à 1500m
200 à 500 ft
< 800m
< 200 ft
Symboles :   Orages  Brouillard  Fortes neiges  Fortes précipitations  Vent > 20 kt
SIGMETs :   Divers  Orages  Givrage  Turbulence  Onde Orograph.  Cendres Volcan.







- Altitude de l'aérodrome : 72 ft
- Code IATA : UDE


EHVK - Volkel Airbase

DERNIER METAR :
  • 261725Z AUTO 31005KT 280V350 9999 FEW088 08/M00 Q1013 BLU

METARs EXPIRÉS :
  • 261655Z AUTO 34008KT 300V360 9999 NCD 08/00 Q1013 BLU
  • 261625Z AUTO 33008KT 300V010 9999 OVC100 09/M01 Q1013 BLU
  • 261555Z AUTO 33007KT 270V010 9999 FEW061 10/M02 Q1013 BLU
  • 261525Z AUTO 30006KT 260V330 9999 NCD 09/M01 Q1013 BLU
  • 261455Z AUTO 35008KT 290V030 9999 FEW100 SCT410 10/M01 Q1013 BLU
  • 261425Z AUTO 35007KT 330V050 9999 FEW064 SCT071 BKN077 09/M00 Q1013 BLU

TAF COR TAF EHVK
Valide du 26 à 13h jusqu'au 27 à 01h UTC


261253Z 2613/2701 30009KT 9999 FEW030 BKN040
TEMPO 2613/2617 FEW023CB BKN030
PROB30
TEMPO 2613/2617 02012G22KT 4500 SHRAGS TSRA SCT020CB BKN025
Pas de NOTAMs connus pour ce terrain.



MET'MAP, la Météo Aéronautique d'un coup d'oeil ! - Copyright ORBIFLY Décembre 2007 - Disclaimer

ORBIFLY MET'MAP TEAM :

Programmation & Développement : Alexandra Zaïnal
Conception & Développement : Baudouin d'Aumeries
Co-Programmation & Développement : Marc-Olivier Méhu
Soutien technique & logistique : Manuel Goepfert

Contact : metmap@orbifly.com




SOURCES & CREDITS :

   NOAA